createdAt,value
2018-05-10T12:38:51.307Z,17.55
2018-05-10T12:44:12.358Z,17.32
2018-05-10T12:46:45.543Z,17.21
2018-05-10T12:51:56.325Z,16.94
2018-05-10T12:54:31.967Z,16.87
2018-05-10T12:57:06.866Z,16.80
2018-05-10T12:59:41.441Z,16.74
2018-05-10T13:02:14.519Z,16.71
2018-05-10T13:04:50.381Z,16.67
2018-05-10T13:07:24.582Z,16.66
2018-05-10T13:10:00.364Z,16.62
2018-05-10T13:12:34.444Z,16.58
2018-05-10T13:15:09.716Z,16.59
2018-05-10T13:17:50.999Z,16.58
2018-05-10T13:20:23.481Z,16.56
2018-05-10T13:22:56.639Z,16.58
2018-05-10T13:25:33.049Z,16.57
2018-05-10T13:28:07.783Z,16.60
2018-05-10T13:30:42.484Z,16.61
2018-05-10T13:33:15.296Z,16.62
2018-05-10T13:35:48.646Z,16.60
2018-05-10T13:38:21.653Z,16.62
2018-05-10T13:40:54.501Z,16.69
2018-05-10T13:43:27.707Z,16.66
2018-05-10T13:48:44.358Z,16.75
2018-05-10T13:51:16.849Z,16.75
2018-05-10T13:53:49.963Z,16.80
2018-05-10T13:56:23.285Z,16.86
2018-05-10T13:58:56.453Z,16.87
2018-05-10T14:01:28.860Z,16.91
2018-05-10T14:04:02.143Z,16.94
2018-05-10T14:06:36.585Z,16.97
2018-05-10T14:09:10.701Z,16.98
2018-05-10T14:11:45.723Z,16.98
2018-05-10T14:14:18.942Z,16.99
2018-05-10T14:16:52.868Z,17.02
2018-05-10T14:19:30.779Z,17.04
2018-05-10T14:22:05.489Z,17.05
2018-05-10T14:24:41.460Z,17.03
2018-05-10T14:27:14.524Z,16.97
2018-05-10T14:29:47.042Z,16.91
2018-05-10T14:32:20.432Z,16.88
2018-05-10T14:34:54.644Z,16.84
2018-05-10T14:37:27.422Z,16.82
2018-05-10T14:40:00.727Z,16.81
2018-05-10T14:42:34.365Z,16.79
2018-05-10T14:45:21.941Z,16.79
2018-05-10T14:48:05.195Z,16.76
2018-05-10T14:50:39.227Z,16.78
2018-05-10T14:53:11.822Z,16.76
2018-05-10T14:55:48.062Z,16.76
2018-05-10T14:58:28.603Z,16.77
2018-05-10T15:01:01.440Z,16.90
2018-05-10T15:03:35.301Z,17.04
2018-05-10T15:06:20.347Z,17.23
2018-05-10T15:08:53.358Z,17.45
2018-05-10T15:11:26.479Z,17.68
2018-05-10T15:14:00.979Z,17.91
2018-05-10T15:16:36.383Z,18.12
2018-05-10T15:19:13.442Z,18.26
2018-05-10T15:21:48.119Z,18.39
2018-05-10T15:24:22.562Z,18.51
2018-05-10T15:26:55.119Z,18.63
2018-05-10T15:29:28.699Z,18.70
2018-05-10T15:32:07.891Z,18.77
2018-05-10T15:34:39.518Z,18.83
2018-05-10T15:37:11.963Z,18.90
2018-05-10T15:39:45.799Z,18.93
2018-05-10T15:42:21.321Z,18.95
2018-05-10T15:44:56.265Z,18.95
2018-05-10T15:47:29.902Z,18.92
2018-05-10T15:50:03.827Z,18.88
2018-05-10T15:52:42.024Z,18.85
2018-05-10T15:55:19.503Z,18.81
2018-05-10T15:57:52.464Z,18.77
2018-05-10T16:00:24.955Z,18.67
2018-05-10T16:02:57.362Z,18.60
2018-05-10T16:05:29.825Z,18.52
2018-05-10T16:08:03.841Z,18.40
2018-05-10T16:10:36.005Z,18.33
2018-05-10T16:13:08.965Z,18.28
2018-05-10T16:15:41.536Z,18.22
2018-05-10T16:18:14.359Z,18.15
2018-05-10T16:20:47.801Z,18.11
2018-05-10T16:23:21.734Z,18.08
2018-05-10T16:25:55.082Z,18.10
2018-05-10T16:28:37.761Z,18.17
2018-05-10T16:31:10.684Z,18.20
2018-05-10T16:33:42.842Z,18.25
2018-05-10T16:36:16.947Z,18.23
2018-05-10T16:38:50.040Z,18.22
2018-05-10T16:41:23.319Z,18.26
2018-05-10T16:43:56.739Z,18.35
2018-05-10T16:46:31.264Z,18.42
2018-05-10T16:49:05.443Z,18.51
2018-05-10T16:51:37.337Z,18.64
2018-05-10T16:54:10.739Z,18.73
2018-05-10T16:56:43.721Z,18.80
2018-05-10T16:59:17.280Z,18.87
2018-05-10T17:01:49.679Z,18.86
2018-05-10T17:04:26.563Z,18.86
2018-05-10T17:06:59.478Z,18.84
2018-05-10T17:09:34.043Z,18.77
2018-05-10T17:12:08.324Z,18.72
2018-05-10T17:14:41.748Z,18.65
2018-05-10T17:17:18.297Z,18.59
2018-05-10T17:19:50.503Z,18.52
2018-05-10T17:22:24.588Z,18.46
2018-05-10T17:25:01.525Z,18.36
2018-05-10T17:27:37.342Z,18.30
2018-05-10T17:30:13.979Z,18.25
2018-05-10T17:32:48.197Z,18.16
2018-05-10T17:35:23.943Z,18.07
2018-05-10T17:37:57.180Z,17.97
2018-05-10T17:40:29.685Z,17.92
2018-05-10T17:43:02.321Z,17.90
2018-05-10T17:45:40.126Z,17.90
2018-05-10T17:48:17.143Z,17.89
2018-05-10T17:50:50.643Z,17.82
2018-05-10T17:53:24.940Z,17.78
2018-05-10T17:55:59.150Z,17.70
2018-05-10T17:58:33.908Z,17.62
2018-05-10T18:01:06.380Z,17.56
2018-05-10T18:03:39.766Z,17.55
2018-05-10T18:06:17.476Z,17.53
2018-05-10T18:08:52.339Z,17.48
2018-05-10T18:11:25.381Z,17.45
2018-05-10T20:04:55.519Z,16.00
2018-05-10T20:07:30.717Z,15.97
2018-05-10T20:10:04.020Z,15.94
2018-05-10T20:12:36.864Z,15.92
2018-05-10T20:15:11.041Z,15.90
2018-05-10T20:17:44.807Z,15.92
2018-05-10T20:20:17.628Z,15.91
2018-05-10T20:22:56.962Z,15.87
2018-05-10T20:25:31.518Z,15.78
2018-05-10T20:28:03.882Z,15.65
2018-05-10T20:30:41.118Z,15.57
2018-05-10T20:33:14.742Z,15.48
2018-05-10T20:35:49.247Z,15.42
2018-05-10T20:38:21.647Z,15.38
2018-05-10T20:40:56.385Z,15.36
2018-05-10T21:19:00.481Z,14.99
2018-05-10T21:21:35.380Z,15.01
2018-05-10T21:24:08.942Z,15.02
2018-05-10T21:26:43.120Z,15.03
2018-05-10T21:29:15.719Z,15.06
2018-05-10T21:31:49.396Z,15.10
2018-05-10T21:34:23.178Z,15.08
2018-05-10T21:36:56.836Z,15.08
2018-05-10T21:39:34.496Z,15.05
2018-05-10T21:42:07.979Z,15.04
2018-05-10T21:44:42.893Z,15.00
2018-05-10T21:47:16.701Z,14.97
2018-05-10T21:50:06.261Z,15.00
2018-05-10T21:52:39.102Z,15.00
2018-05-10T21:55:13.897Z,14.99
2018-05-10T21:57:48.959Z,14.98
2018-05-10T22:00:23.296Z,14.99
2018-05-10T22:02:59.158Z,14.93
2018-05-10T22:05:41.262Z,14.93
2018-05-10T22:08:14.320Z,14.95
2018-05-10T22:33:00.101Z,14.98
2018-05-10T22:35:32.579Z,14.98
2018-05-10T22:38:05.113Z,14.98
2018-05-10T22:40:37.116Z,14.96
2018-05-10T22:43:10.898Z,14.99
2018-05-10T22:45:43.612Z,15.03
2018-05-10T22:48:18.494Z,15.03
2018-05-10T22:50:55.629Z,15.04
2018-05-10T22:53:30.036Z,15.03
2018-05-10T22:56:03.813Z,15.04
2018-05-10T22:58:36.673Z,15.06
2018-05-10T23:01:11.492Z,15.07
2018-05-10T23:03:44.215Z,15.07
2018-05-10T23:06:17.854Z,15.09
2018-05-10T23:08:51.285Z,15.08
2018-05-10T23:11:24.594Z,15.05
2018-05-10T23:13:59.633Z,15.06
2018-05-10T23:16:46.132Z,15.07
2018-05-10T23:19:19.412Z,15.06
2018-05-10T23:21:53.813Z,15.07
2018-05-10T23:24:26.355Z,15.09
2018-05-10T23:26:58.454Z,15.12
2018-05-10T23:29:31.326Z,15.12
2018-05-10T23:32:04.394Z,15.13
2018-05-10T23:34:36.309Z,15.15
2018-05-10T23:37:08.695Z,15.14
2018-05-10T23:39:41.471Z,15.13
2018-05-10T23:42:14.069Z,15.10
2018-05-10T23:44:51.131Z,15.11
2018-05-10T23:47:23.613Z,15.09
2018-05-10T23:49:55.255Z,15.05
2018-05-10T23:52:33.051Z,15.05
2018-05-10T23:55:05.498Z,15.07
2018-05-10T23:57:38.057Z,15.08
